Terminal Aerodrome Forecast
Issued by NWS

Home | Current Version | Previous Version | Text Only | Print | Product List | Glossary On
Versions: 1 2 3 4 5 6 7 8 9 10 11 12 13 14
843
FTUS44 KMAF 191720
TAFHOB
TAF
KHOB 191720Z 1918/2018 18008KT P6SM -SHRA BKN100
     FM200000 14008KT P6SM FEW050 OVC200
     FM200700 16010KT P6SM BKN010
     FM201600 18007KT P6SM SCT250=

USA.gov is the U.S. government's official web portal to all federal, state and local government web resources and services.